Potsdam, NY

44° 42' 44"N, 74° 57' 12"W, Elevation 460 ft.
Eastern Time

Hourly observations for the last 72 hours

Date Time Temperature (°F) Humi-
dity

(%)
Wind
(mph)
Pressure Rain (in)
Air Dew 6 Hour 1 Hr 3 Hr 6 Hr Day
Alt
(in)
Sea
Level

(mb)
Max Min
20 20:00 68.5 57.9 77.4 68.5 69 W 0 G 3 30.16 1021.2 0.00
20 19:00 68.5 57.9 69 S 0 G 1 30.15 1020.9 0.00
20 18:00 71.8 59.0 64 W 0 G 2 30.14 1020.8 0.00
20 17:00 76.2 60.4 58 W 1 G 6 30.13 1020.5 0.00
20 16:00 75.6 59.3 57 WSW 1 G 7 30.13 1020.5 0.00
20 15:00 77.0 62.5 61 W 1 G 8 30.14 1020.6 0.00
20 14:00 74.9 60.1 75.1 58.1 60 W 1 G 8 30.15 1021.1 0.00
20 13:00 73.5 60.1 63 W 2 G 7 30.18 1021.9 0.00
20 12:00 71.3 61.0 70 SW 1 G 8 30.19 1022.5 0.00
20 11:00 69.4 60.4 73 SW 1 G 6 30.21 1023.1 0.00
20 10:00 66.5 58.3 75 SW 1 G 9 30.23 1023.7 0.00
20 09:00 60.3 54.5 81 S 1 G 7 30.24 1024.0 0.00
20 08:00 64.4 57.0 64.4 64.4 77 S 2 G 6 30.23 1023.7 0.00
20 07:00 64.4 57.0 77 SSE 3 G 7 30.22 1023.3 0.00
20 06:00 64.4 57.0 77 S 2 G 7 30.20 1022.8 0.00
20 05:00 64.4 57.0 77 SSE 1 G 4 30.20 1022.8 0.00
20 04:00 64.4 57.0 77 S 0 G 5 30.20 1022.7 0.00
20 03:00 64.4 57.0 77 S 0 G 6 30.20 1022.8 0.00
20 02:00 64.4 57.0 64.4 64.4 77 S 1 G 3 30.21 1023.0 0.00
20 01:00 64.4 57.0 77 S 1 G 4 30.21 1023.0 0.00
20 00:00 64.4 57.0 77 S 0 G 6 30.22 1023.3 0.00
19 23:00 64.4 57.0 77 S 1 G 5 30.22 1023.5 0.00
19 22:00 64.4 57.0 77 S 0 G 4 30.24 1023.9 0.00
19 21:00 64.4 57.0 77 NW 0 G 1 30.23 1023.8 0.00
19 20:00 64.4 57.0 74.9 64.4 77 Calm 30.23 1023.6 0.00
19 19:00 64.4 57.0 77 Calm 30.24 1024.0 0.00
19 18:00 68.5 57.5 68 Calm 30.24 1024.0 0.00
19 17:00 74.0 56.3 54 SW 0 G 3 30.24 1024.0 0.00
19 16:00 74.6 57.9 56 WSW 0 G 6 30.25 1024.4 0.00
19 15:00 73.8 56.6 55 SSW 0 G 4 30.27 1025.0 0.00
19 14:00 72.3 53.7 72.7 45.5 52 SSW 0 G 5 30.27 1025.3 0.00
19 13:00 71.8 53.8 53 WNW 3 G 8 30.29 1025.6 0.00
19 12:00 68.6 55.5 63 WNW 0 G 3 30.30 1026.0 0.00
19 11:00 65.7 51.4 60 W 2 G 6 30.32 1026.7 0.00
19 10:00 61.4 53.0 74 S 0 G 3 30.32 1026.9 0.00
19 09:00 49.6 49.1 98 Calm 30.33 1027.3 0.00
19 08:00 59.4 51.5 59.4 59.4 75 Calm 30.32 1026.8 0.00
19 07:00 59.4 51.5 75 Calm 30.31 1026.5 0.00
19 06:00 59.4 51.5 75 Calm 30.31 1026.5 0.00
19 05:00 59.4 51.5 75 Calm 30.31 1026.5 0.00
19 04:00 59.4 51.5 75 Calm 30.31 1026.4 0.00
19 03:00 59.4 51.5 75 S 0 G 5 30.31 1026.3 0.00
19 02:00 59.4 51.5 59.4 59.4 75 SE 2 G 5 30.30 1026.1 0.00
19 01:00 59.4 51.5 75 SE 1 G 3 30.30 1025.9 0.00
19 00:00 59.4 51.5 75 SE 2 G 7 30.30 1026.1 0.00
18 23:00 59.4 51.5 75 E 1 G 4 30.30 1026.0 0.00
18 22:00 59.4 51.5 75 Calm 30.31 1026.3 0.00
18 21:00 59.4 51.5 75 Calm 30.31 1026.4 0.00
18 20:00 59.4 51.5 71.2 59.4 75 NE 0 G 3 30.30 1026.2 0.00
18 19:00 59.4 51.5 75 ENE 0 G 1 30.30 1026.0 0.00
18 18:00 63.8 52.2 66 NE 0 G 8 30.29 1025.7 0.00
18 17:00 69.9 54.0 57 ENE 1 G 4 30.29 1025.8 0.00
18 16:00 70.3 51.9 52 E 1 G 5 30.30 1026.0 0.00
18 15:00 69.4 52.1 54 NNE 2 G 9 30.30 1026.2 0.00
18 14:00 69.1 52.3 69.3 48.3 55 E 2 G 8 30.32 1026.6 0.00
18 13:00 68.8 52.5 56 NE 0 G 11 30.33 1027.0 0.00
18 12:00 66.8 51.6 58 ESE 4 G 10 30.32 1026.8 0.00
18 11:00 63.4 51.9 66 E 1 G 7 30.33 1027.0 0.00
18 10:00 58.8 54.0 84 E 1 G 6 30.33 1027.3 0.00
18 09:00 50.8 50.3 98 E 0 G 2 30.34 1027.3 0.00
18 08:00 59.0 51.8 59.0 59.0 77 E 2 G 4 30.33 1027.1 0.00
18 07:00 59.0 51.8 77 Calm 30.32 1026.8 0.00
18 06:00 59.0 51.8 77 Calm 30.29 1025.7 0.00
18 05:00 59.0 51.8 77 Calm 30.28 1025.5 0.00
18 04:00 59.0 51.8 77 Calm 30.26 1024.9 0.00
18 03:00 59.0 51.8 77 Calm 30.25 1024.5 0.00
18 02:00 59.0 51.8 59.0 59.0 77 E 0 G 2 30.25 1024.4 0.00
18 01:00 59.0 51.8 77 E 0 G 2 30.24 1024.0 0.00
18 00:00 59.0 51.8 77 Calm 30.23 1023.7 0.00
17 23:00 59.0 51.8 77 Calm 30.22 1023.4 0.00
17 22:00 59.0 51.8 77 Calm 30.21 1023.0 0.00
17 21:00 59.0 51.8 77 Calm 30.20 1022.9 0.00

Data generated by WxSolution Version 1.9.1.5, Build 2018.05.20.